Time;durP1;ratioP1;P1;durP2;ratioP2;P2;SDS_P1;SDS_P2;PMS_P1;PMS_P2;Temp;Humidity;BMP_temperature;BMP_pressure;BME280_temperature;BME280_humidity;BME280_pressure;Samples;Min_cycle;Max_cycle;Signal;HPM_P1;HPM_P2
2022/01/04 00:00:11;;;;;;;12.23;3.83;;;6.80;99.90;;;;;;4420438;28;658099;-67
2022/01/04 00:02:59;;;;;;;12.67;3.90;;;6.80;99.90;;;;;;4394645;28;658230;-67
2022/01/04 00:05:46;;;;;;;7.40;2.50;;;6.80;99.90;;;;;;4407623;28;657406;-67
2022/01/04 00:08:34;;;;;;;8.73;3.50;;;6.70;99.90;;;;;;4429699;28;657246;-67
2022/01/04 00:11:32;;;;;;;10.47;3.00;;;6.70;99.90;;;;;;4410029;28;657071;-67
2022/01/04 00:14:21;;;;;;;8.37;3.30;;;6.60;99.90;;;;;;4389738;28;657676;-67
2022/01/04 00:17:08;;;;;;;7.03;1.90;;;6.60;99.90;;;;;;4391989;28;657945;-67
2022/01/04 00:19:56;;;;;;;7.93;2.53;;;6.50;99.90;;;;;;4398693;28;656246;-67
2022/01/04 00:22:43;;;;;;;10.65;3.58;;;6.50;99.90;;;;;;4427544;28;656331;-67
2022/01/04 00:25:31;;;;;;;7.87;2.73;;;6.50;99.90;;;;;;4408411;28;657680;-67
2022/01/04 00:28:19;;;;;;;11.48;3.08;;;6.50;99.90;;;;;;4429225;28;657855;-66
2022/01/04 00:31:08;;;;;;;8.73;3.20;;;6.50;99.90;;;;;;4393591;28;657717;-66
2022/01/04 00:33:56;;;;;;;4.47;2.30;;;6.50;99.90;;;;;;4399130;28;656865;-67
2022/01/04 00:36:43;;;;;;;8.47;2.83;;;6.50;99.90;;;;;;4424414;28;657671;-66
2022/01/04 00:39:31;;;;;;;7.50;2.60;;;6.50;99.90;;;;;;4408382;28;656720;-67
2022/01/04 00:42:18;;;;;;;8.83;2.50;;;6.50;99.90;;;;;;4428608;28;656954;-66
2022/01/04 00:45:06;;;;;;;4.47;2.17;;;6.50;99.90;;;;;;4399898;28;656771;-67
2022/01/04 00:51:00;;;;;;;6.33;1.90;;;6.40;99.90;;;;;;4421050;28;656272;-67
2022/01/04 00:53:48;;;;;;;5.90;2.27;;;6.30;99.90;;;;;;4427636;28;657383;-66
2022/01/04 00:56:36;;;;;;;5.90;1.90;;;6.40;99.90;;;;;;4408518;28;657193;-67
2022/01/04 00:59:23;;;;;;;6.73;2.27;;;6.40;99.90;;;;;;4427823;28;657194;-67
2022/01/04 01:02:11;;;;;;;6.60;2.50;;;6.30;99.90;;;;;;4401569;28;658205;-67
2022/01/04 01:05:00;;;;;;;6.43;2.20;;;6.30;99.90;;;;;;4425033;28;657017;-67
2022/01/04 01:07:47;;;;;;;7.15;2.55;;;6.40;99.90;;;;;;4405009;28;657052;-66
2022/01/04 01:10:44;;;;;;;4.57;2.20;;;6.40;99.90;;;;;;4427323;28;657307;-67
2022/01/04 01:13:32;;;;;;;9.30;2.35;;;6.30;99.90;;;;;;4381565;28;656726;-68
2022/01/04 01:16:19;;;;;;;5.20;2.30;;;6.30;99.90;;;;;;4430428;28;657035;-67
2022/01/04 01:19:07;;;;;;;7.03;2.03;;;6.30;99.90;;;;;;4403872;28;656883;-67
2022/01/04 01:21:56;;;;;;;6.43;2.27;;;6.20;99.90;;;;;;4425104;28;656180;-66
2022/01/04 01:24:43;;;;;;;7.20;2.07;;;6.20;99.90;;;;;;4405634;28;657159;-67
2022/01/04 01:27:31;;;;;;;5.17;2.23;;;6.20;99.90;;;;;;4406729;28;656673;-67
2022/01/04 01:30:19;;;;;;;10.60;2.60;;;6.10;99.90;;;;;;4425691;28;658020;-67
2022/01/04 01:33:06;;;;;;;5.00;2.07;;;6.00;99.90;;;;;;4405647;28;658150;-67
2022/01/04 01:35:54;;;;;;;7.60;1.83;;;6.10;99.90;;;;;;4431094;28;657299;-67
2022/01/04 01:38:43;;;;;;;4.40;2.30;;;6.00;99.90;;;;;;4408148;28;656895;-67
2022/01/04 01:41:31;;;;;;;4.63;2.10;;;6.00;99.90;;;;;;4416007;28;656903;-67
2022/01/04 01:44:18;;;;;;;7.43;2.43;;;6.00;99.90;;;;;;4426072;28;657028;-67
2022/01/04 01:47:06;;;;;;;7.90;2.17;;;5.90;99.90;;;;;;4403445;28;657271;-68
2022/01/04 01:49:54;;;;;;;3.97;2.00;;;5.90;99.90;;;;;;4426007;28;657360;-67
2022/01/04 01:52:42;;;;;;;5.67;2.60;;;5.80;99.90;;;;;;4410825;28;656283;-68
2022/01/04 01:55:31;;;;;;;5.23;2.40;;;5.70;99.90;;;;;;4428620;28;656786;-68
2022/01/04 01:58:18;;;;;;;4.83;2.30;;;5.70;99.90;;;;;;4400458;28;656978;-68
2022/01/04 02:01:06;;;;;;;6.57;2.47;;;5.60;99.90;;;;;;4404192;28;657331;-67
2022/01/04 02:03:53;;;;;;;5.87;1.97;;;5.60;99.90;;;;;;4433814;28;657009;-68
2022/01/04 02:06:41;;;;;;;6.63;2.60;;;5.60;99.90;;;;;;4410360;28;656622;-68
2022/01/04 02:09:29;;;;;;;5.27;1.87;;;5.60;99.90;;;;;;4428394;28;657266;-68
2022/01/04 02:12:18;;;;;;;6.07;2.20;;;5.50;99.90;;;;;;4403889;28;656574;-68
2022/01/04 02:15:07;;;;;;;3.60;1.90;;;5.50;99.90;;;;;;4402294;28;657082;-68
2022/01/04 02:17:56;;;;;;;7.37;2.40;;;5.50;99.90;;;;;;4425110;28;656482;-68
2022/01/04 02:20:45;;;;;;;5.47;2.40;;;5.50;99.90;;;;;;4426652;28;656320;-67
2022/01/04 02:23:33;;;;;;;5.60;2.20;;;5.50;99.90;;;;;;4406537;28;658170;-67
2022/01/04 02:26:21;;;;;;;5.13;2.20;;;5.40;99.90;;;;;;4405197;28;656747;-67
2022/01/04 02:29:08;;;;;;;3.33;1.87;;;5.50;99.90;;;;;;4422275;28;657385;-67
2022/01/04 02:31:56;;;;;;;6.03;2.20;;;5.40;99.90;;;;;;4409439;28;656356;-67
2022/01/04 02:34:47;;;;;;;3.87;2.30;;;5.40;99.90;;;;;;4420271;28;657736;-67
2022/01/04 02:37:36;;;;;;;7.23;2.67;;;5.40;99.90;;;;;;4403483;28;656585;-67
2022/01/04 02:40:24;;;;;;;5.27;2.50;;;5.40;99.90;;;;;;4399675;28;656671;-68
2022/01/04 02:43:12;;;;;;;7.20;2.90;;;5.40;99.90;;;;;;4401902;28;657382;-68
2022/01/04 02:45:59;;;;;;;5.13;2.93;;;5.40;99.90;;;;;;4421108;28;656481;-67
2022/01/04 02:48:47;;;;;;;8.90;3.37;;;5.30;99.90;;;;;;4404373;28;656984;-67
2022/01/04 02:51:34;;;;;;;5.73;3.23;;;5.40;99.90;;;;;;4430171;28;657208;-67
2022/01/04 02:54:23;;;;;;;7.00;3.10;;;5.40;99.90;;;;;;4411967;28;656587;-67
2022/01/04 02:57:11;;;;;;;6.03;3.03;;;5.40;99.90;;;;;;4404178;28;657515;-67
2022/01/04 02:59:58;;;;;;;8.17;3.23;;;5.40;99.90;;;;;;4428655;28;656949;-68
2022/01/04 03:02:46;;;;;;;6.23;3.23;;;5.40;99.90;;;;;;4411994;28;656270;-67
2022/01/04 03:05:33;;;;;;;5.68;2.70;;;5.40;99.90;;;;;;4421881;28;657180;-67
2022/01/04 03:08:21;;;;;;;5.00;3.03;;;5.30;99.90;;;;;;4411578;28;656540;-68
2022/01/04 03:11:10;;;;;;;5.40;3.10;;;5.40;99.90;;;;;;4423013;28;657378;-67
2022/01/04 03:13:57;;;;;;;5.05;2.70;;;5.40;99.90;;;;;;4400930;28;657217;-67
2022/01/04 03:16:46;;;;;;;7.97;3.90;;;5.40;99.90;;;;;;4425662;28;656474;-68
2022/01/04 03:19:33;;;;;;;6.63;3.17;;;5.50;99.90;;;;;;4432927;28;657704;-67
2022/01/04 03:22:21;;;;;;;8.87;4.20;;;5.50;99.90;;;;;;4403936;28;657286;-68
2022/01/04 03:25:09;;;;;;;9.70;3.80;;;5.50;99.90;;;;;;4422121;28;656906;-67
2022/01/04 03:27:58;;;;;;;10.17;3.80;;;5.50;99.90;;;;;;4405825;28;656872;-68
2022/01/04 03:30:46;;;;;;;10.13;4.53;;;5.50;99.90;;;;;;4407743;28;657471;-67
2022/01/04 03:33:34;;;;;;;15.27;5.40;;;5.50;99.90;;;;;;4431401;28;658863;-68
2022/01/04 03:36:24;;;;;;;21.87;8.33;;;5.50;99.90;;;;;;4400305;28;657596;-68
2022/01/04 03:39:12;;;;;;;15.67;7.90;;;5.50;99.90;;;;;;4400515;28;657554;-68
2022/01/04 03:41:59;;;;;;;12.70;7.03;;;5.50;99.90;;;;;;4417576;28;657367;-68
2022/01/04 03:44:48;;;;;;;17.23;7.80;;;5.50;99.90;;;;;;4396627;28;657469;-68
2022/01/04 03:47:36;;;;;;;13.10;5.47;;;5.50;99.90;;;;;;4400261;28;657704;-68
2022/01/04 03:50:24;;;;;;;17.85;7.45;;;5.50;99.90;;;;;;4413935;28;658177;-68
2022/01/04 03:53:11;;;;;;;12.57;5.90;;;5.50;99.90;;;;;;4395983;28;657738;-68
2022/01/04 03:55:59;;;;;;;12.67;6.20;;;5.50;99.90;;;;;;4420111;28;658541;-68
2022/01/04 03:58:46;;;;;;;14.20;6.57;;;5.50;99.90;;;;;;4401374;28;657418;-67
2022/01/04 04:01:35;;;;;;;14.70;6.13;;;5.50;99.90;;;;;;4419734;28;658487;-67
2022/01/04 04:04:23;;;;;;;12.83;6.00;;;5.50;99.90;;;;;;4399138;28;658238;-68
2022/01/04 04:07:11;;;;;;;8.13;4.87;;;5.50;99.90;;;;;;4402937;28;657549;-67
2022/01/04 04:09:58;;;;;;;17.90;5.80;;;5.50;99.90;;;;;;4418306;28;657241;-67
2022/01/04 04:12:46;;;;;;;17.07;7.70;;;5.50;99.90;;;;;;4399604;28;657653;-68
2022/01/04 04:15:33;;;;;;;19.13;7.60;;;5.50;99.90;;;;;;4425359;28;658073;-68
2022/01/04 04:18:22;;;;;;;23.40;8.43;;;5.50;99.90;;;;;;4398021;28;657537;-68
2022/01/04 04:21:10;;;;;;;22.73;10.77;;;5.60;99.90;;;;;;4413001;28;657473;-68
2022/01/04 04:23:58;;;;;;;23.67;10.37;;;5.60;99.90;;;;;;4388621;28;659559;-68
2022/01/04 04:26:45;;;;;;;18.50;8.87;;;5.60;99.90;;;;;;4397625;28;659279;-68
2022/01/04 04:29:33;;;;;;;19.53;9.97;;;5.60;99.90;;;;;;4414805;28;658663;-68
2022/01/04 04:32:21;;;;;;;20.70;8.87;;;5.60;99.90;;;;;;4391545;28;657725;-68
2022/01/04 04:35:10;;;;;;;18.93;9.60;;;5.60;99.90;;;;;;4409112;28;658524;-67
2022/01/04 04:37:58;;;;;;;15.30;8.23;;;5.60;99.90;;;;;;4401338;28;659754;-68
2022/01/04 04:40:46;;;;;;;16.57;9.17;;;5.60;99.90;;;;;;4395788;28;657517;-68
2022/01/04 04:43:34;;;;;;;16.33;9.03;;;5.70;99.90;;;;;;4414942;28;658802;-67
2022/01/04 04:46:21;;;;;;;16.63;8.33;;;5.70;99.90;;;;;;4397475;28;657794;-68
2022/01/04 04:49:09;;;;;;;18.60;9.13;;;5.70;99.90;;;;;;4410450;28;659144;-68
2022/01/04 04:51:59;;;;;;;14.90;8.07;;;5.70;99.90;;;;;;4404198;28;657312;-68
2022/01/04 04:54:47;;;;;;;14.57;8.07;;;5.70;99.90;;;;;;4402572;28;657796;-67
2022/01/04 04:57:34;;;;;;;13.73;7.90;;;5.70;99.90;;;;;;4427844;28;657281;-68
2022/01/04 05:00:22;;;;;;;15.60;8.43;;;5.70;99.90;;;;;;4399316;28;658446;-68
2022/01/04 05:03:09;;;;;;;16.53;9.23;;;5.70;99.90;;;;;;4417953;28;657236;-68
2022/01/04 05:05:57;;;;;;;17.53;9.00;;;5.70;99.90;;;;;;4405234;28;658216;-68
2022/01/04 05:08:46;;;;;;;20.20;9.43;;;5.70;99.90;;;;;;4427863;28;658008;-68
2022/01/04 05:11:33;;;;;;;18.07;9.47;;;5.60;99.90;;;;;;4405334;28;657722;-67
2022/01/04 05:14:21;;;;;;;16.23;8.93;;;5.60;99.90;;;;;;4394431;28;658076;-68
2022/01/04 05:17:08;;;;;;;15.03;8.40;;;5.60;99.90;;;;;;4425615;28;658563;-68
2022/01/04 05:19:56;;;;;;;17.60;9.23;;;5.60;99.90;;;;;;4414479;28;658115;-68
2022/01/04 05:22:43;;;;;;;16.33;9.57;;;5.60;99.90;;;;;;4434811;28;658223;-68
2022/01/04 05:25:32;;;;;;;16.70;9.47;;;5.50;99.90;;;;;;4414148;28;657468;-68
2022/01/04 05:28:20;;;;;;;14.47;8.80;;;5.50;99.90;;;;;;4427090;28;657365;-67
2022/01/04 05:31:07;;;;;;;14.73;7.60;;;5.50;99.90;;;;;;4393954;28;659145;-68
2022/01/04 05:33:55;;;;;;;15.90;8.50;;;5.50;99.90;;;;;;4425544;28;658040;-68
2022/01/04 05:36:42;;;;;;;12.87;7.53;;;5.40;99.90;;;;;;4403933;28;657850;-68
2022/01/04 05:39:30;;;;;;;14.90;8.00;;;5.40;99.90;;;;;;4423056;28;657314;-68
2022/01/04 05:42:20;;;;;;;13.80;7.67;;;5.40;99.90;;;;;;4433056;28;658138;-68
2022/01/04 05:45:10;;;;;;;18.83;9.27;;;5.40;99.90;;;;;;4398482;28;658980;-67
2022/01/04 05:47:57;;;;;;;15.77;9.30;;;5.40;99.90;;;;;;4403763;28;660058;-68
2022/01/04 05:50:46;;;;;;;23.00;10.50;;;5.30;99.90;;;;;;4432620;28;657813;-68
2022/01/04 05:53:34;;;;;;;28.00;10.30;;;5.30;99.90;;;;;;4431498;28;659522;-68
2022/01/04 05:56:21;;;;;;;31.10;11.90;;;5.30;99.90;;;;;;4405587;28;658496;-67
2022/01/04 05:59:10;;;;;;;33.23;11.97;;;5.30;99.90;;;;;;4422871;28;658691;-67
2022/01/04 06:01:58;;;;;;;20.33;11.07;;;5.30;99.90;;;;;;4406667;28;659809;-68
2022/01/04 06:04:46;;;;;;;30.07;12.00;;;5.20;99.90;;;;;;4412082;28;659247;-68
2022/01/04 06:07:34;;;;;;;33.93;10.00;;;5.20;99.90;;;;;;4425232;28;659092;-67
2022/01/04 06:10:21;;;;;;;19.00;9.50;;;5.20;99.90;;;;;;4404033;28;658566;-68
2022/01/04 06:16:15;;;;;;;15.97;7.57;;;5.20;99.90;;;;;;4403095;28;657792;-68
2022/01/04 06:19:03;;;;;;;13.10;7.37;;;5.20;99.90;;;;;;4397049;28;659000;-67
2022/01/04 06:21:51;;;;;;;15.50;7.73;;;5.20;99.90;;;;;;4411114;28;658044;-68
2022/01/04 06:24:38;;;;;;;14.97;7.67;;;5.20;99.90;;;;;;4430895;28;658062;-67
2022/01/04 06:27:26;;;;;;;16.40;6.20;;;5.20;99.90;;;;;;4407817;28;657364;-68
2022/01/04 06:30:15;;;;;;;15.07;7.10;;;5.30;99.90;;;;;;4417822;28;658554;-67
2022/01/04 06:33:04;;;;;;;14.47;7.13;;;5.30;99.90;;;;;;4401889;28;659522;-68
2022/01/04 06:35:52;;;;;;;13.13;6.90;;;5.30;99.90;;;;;;4410927;28;658338;-68
2022/01/04 06:38:39;;;;;;;12.47;7.33;;;5.30;99.90;;;;;;4428855;28;657348;-68
2022/01/04 06:41:27;;;;;;;15.50;8.30;;;5.30;99.90;;;;;;4410531;28;657604;-68
2022/01/04 06:44:14;;;;;;;17.40;8.37;;;5.40;99.90;;;;;;4421668;28;657755;-67
2022/01/04 06:47:02;;;;;;;17.77;8.03;;;5.40;99.90;;;;;;4393741;28;657917;-68
2022/01/04 06:49:51;;;;;;;17.70;8.57;;;5.40;99.90;;;;;;4427976;28;657359;-68
2022/01/04 06:52:45;;;;;;;20.83;9.40;;;5.40;99.90;;;;;;4405727;28;658705;-68
2022/01/04 06:55:32;;;;;;;17.07;9.47;;;5.40;99.90;;;;;;4384871;28;657662;-68
2022/01/04 06:58:21;;;;;;;20.17;10.77;;;5.40;99.90;;;;;;4417238;28;657139;-68
2022/01/04 07:01:08;;;;;;;26.37;11.07;;;5.50;99.90;;;;;;4401154;28;659305;-68
2022/01/04 07:03:56;;;;;;;25.37;11.80;;;5.50;99.90;;;;;;4397691;28;658660;-68
2022/01/04 07:06:45;;;;;;;26.10;12.20;;;5.50;99.90;;;;;;4402231;28;660268;-68
2022/01/04 07:09:33;;;;;;;23.77;12.60;;;5.50;99.90;;;;;;4388766;28;659259;-68
2022/01/04 07:12:21;;;;;;;24.07;13.00;;;5.50;99.90;;;;;;4407419;28;658900;-68
2022/01/04 07:15:09;;;;;;;22.63;11.33;;;5.60;99.90;;;;;;4411329;28;659238;-68
2022/01/04 07:17:57;;;;;;;25.73;12.87;;;5.50;99.90;;;;;;4391437;28;659091;-68
2022/01/04 07:20:44;;;;;;;30.20;14.03;;;5.60;99.90;;;;;;4402642;28;658359;-75
2022/01/04 07:23:34;;;;;;;28.47;14.03;;;5.60;99.90;;;;;;4398928;28;658870;-76
2022/01/04 07:26:22;;;;;;;27.50;13.93;;;5.60;99.90;;;;;;4354375;28;658633;-75
2022/01/04 07:29:09;;;;;;;27.17;14.83;;;5.60;99.90;;;;;;4404734;28;658774;-75
2022/01/04 07:31:57;;;;;;;26.10;16.80;;;5.60;99.90;;;;;;4385373;28;658990;-75
2022/01/04 07:34:45;;;;;;;29.07;14.17;;;5.70;99.90;;;;;;4361043;28;658881;-76
2022/01/04 07:37:32;;;;;;;27.10;13.63;;;5.80;99.90;;;;;;4375752;28;659260;-75
2022/01/04 07:40:21;;;;;;;24.60;13.50;;;5.80;99.90;;;;;;4388199;28;658580;-76
2022/01/04 07:43:12;;;;;;;22.60;12.47;;;5.80;99.90;;;;;;4385034;28;658851;-75
2022/01/04 07:45:59;;;;;;;25.93;12.97;;;5.90;99.90;;;;;;4362162;28;658693;-76
2022/01/04 07:48:49;;;;;;;28.53;14.40;;;5.90;99.90;;;;;;4375782;28;658895;-75
2022/01/04 07:51:37;;;;;;;22.30;13.27;;;6.00;99.90;;;;;;4383112;28;660020;-75
2022/01/04 07:54:25;;;;;;;28.13;14.47;;;6.10;99.90;;;;;;4377917;28;659268;-75
2022/01/04 07:57:14;;;;;;;26.27;13.73;;;6.10;99.90;;;;;;4358955;28;658691;-75
2022/01/04 08:00:04;;;;;;;34.73;15.03;;;6.20;99.90;;;;;;4369415;28;659174;-76
2022/01/04 08:02:52;;;;;;;28.47;14.40;;;6.30;99.90;;;;;;4342214;28;659151;-76
2022/01/04 08:05:40;;;;;;;20.00;10.53;;;6.40;99.90;;;;;;4382972;28;658894;-75
2022/01/04 08:08:28;;;;;;;24.35;10.10;;;6.50;99.90;;;;;;4372849;28;659923;-76
2022/01/04 08:11:16;;;;;;;26.87;13.83;;;6.60;99.90;;;;;;4376330;28;659057;-76
2022/01/04 08:14:05;;;;;;;116.00;25.20;;;6.60;99.90;;;;;;4368648;28;659336;-76
2022/01/04 08:16:54;;;;;;;32.20;18.00;;;6.60;99.90;;;;;;4387910;28;660615;-76
2022/01/04 08:19:44;;;;;;;33.53;16.87;;;6.60;99.90;;;;;;4380460;28;659075;-76
2022/01/04 08:22:34;;;;;;;32.17;15.50;;;6.60;99.90;;;;;;4397612;28;658569;-75
2022/01/04 08:25:22;;;;;;;28.27;14.30;;;6.60;99.90;;;;;;4384691;28;659580;-75
2022/01/04 08:28:10;;;;;;;22.53;12.20;;;6.70;99.90;;;;;;4414408;28;659054;-76
2022/01/04 08:31:00;;;;;;;21.57;11.73;;;6.70;99.90;;;;;;4383890;28;659620;-75
2022/01/04 08:33:48;;;;;;;29.47;14.70;;;6.70;99.90;;;;;;4371449;28;659356;-75
2022/01/04 08:36:38;;;;;;;26.23;12.75;;;6.70;99.90;;;;;;4374217;28;659037;-74
2022/01/04 08:39:27;;;;;;;26.83;13.20;;;6.70;99.90;;;;;;4389356;28;659089;-75
2022/01/04 08:42:15;;;;;;;24.40;12.98;;;6.70;99.90;;;;;;4412010;28;659044;-75
2022/01/04 08:45:02;;;;;;;27.33;14.27;;;6.80;99.90;;;;;;4389853;28;659631;-75
2022/01/04 08:47:54;;;;;;;31.33;14.67;;;6.80;99.90;;;;;;4383748;28;658614;-75
2022/01/04 08:50:44;;;;;;;23.30;13.03;;;6.80;99.90;;;;;;4352657;28;659203;-76
2022/01/04 08:53:32;;;;;;;24.93;13.50;;;6.80;99.90;;;;;;4370934;28;659190;-77
2022/01/04 08:56:19;;;;;;;26.13;12.97;;;6.80;99.90;;;;;;4381277;28;659352;-76
2022/01/04 08:59:09;;;;;;;24.60;13.57;;;6.80;99.90;;;;;;4376372;28;658889;-75
2022/01/04 09:01:57;;;;;;;27.40;15.07;;;6.80;99.90;;;;;;4390196;28;659224;-76
2022/01/04 09:04:46;;;;;;;23.97;13.33;;;6.70;99.90;;;;;;4395820;28;658965;-75
2022/01/04 09:07:34;;;;;;;23.70;13.70;;;6.70;99.90;;;;;;4368166;28;658882;-75
2022/01/04 09:10:22;;;;;;;22.70;12.97;;;6.70;99.90;;;;;;4364531;28;659178;-76
2022/01/04 09:13:15;;;;;;;22.97;12.77;;;6.70;99.90;;;;;;4357827;28;659147;-76
2022/01/04 09:19:09;;;;;;;26.60;15.10;;;6.70;99.90;;;;;;4362441;28;658783;-75
2022/01/04 09:22:00;;;;;;;28.37;14.97;;;6.70;99.90;;;;;;4384121;28;658988;-76
2022/01/04 09:24:48;;;;;;;32.45;15.25;;;6.70;99.90;;;;;;4374125;28;659699;-75
2022/01/04 09:27:36;;;;;;;27.97;14.87;;;6.70;99.90;;;;;;4372504;28;658314;-76
2022/01/04 09:30:24;;;;;;;29.33;15.60;;;6.70;99.90;;;;;;4404308;28;659074;-76
2022/01/04 09:33:13;;;;;;;30.93;15.83;;;6.70;99.90;;;;;;4374081;28;658426;-75
2022/01/04 09:36:01;;;;;;;37.00;17.80;;;6.70;99.90;;;;;;4339466;28;659371;-76
2022/01/04 09:38:52;;;;;;;34.53;17.93;;;6.70;99.90;;;;;;4401892;28;658733;-75
2022/01/04 09:41:40;;;;;;;42.13;18.63;;;6.70;99.90;;;;;;4376989;28;658852;-76
2022/01/04 09:44:28;;;;;;;36.47;18.27;;;6.80;99.90;;;;;;4387876;28;658741;-75
2022/01/04 09:47:16;;;;;;;39.13;20.00;;;6.80;99.90;;;;;;4392635;28;658608;-76
2022/01/04 09:50:08;;;;;;;37.50;18.93;;;6.90;99.90;;;;;;4414702;28;658799;-75
2022/01/04 09:52:57;;;;;;;39.17;19.87;;;6.90;99.90;;;;;;4375583;28;658997;-76
2022/01/04 09:55:46;;;;;;;33.27;17.77;;;6.90;99.90;;;;;;4405567;28;659520;-76
2022/01/04 09:58:34;;;;;;;42.22;19.23;;;7.00;99.90;;;;;;4386536;28;660726;-75
2022/01/04 10:01:22;;;;;;;38.00;18.67;;;7.10;99.90;;;;;;4391551;28;659162;-76
2022/01/04 10:04:10;;;;;;;47.37;19.37;;;7.00;99.90;;;;;;4400263;28;658841;-75
2022/01/04 10:06:59;;;;;;;36.67;18.20;;;7.10;99.90;;;;;;4391317;28;659286;-75
2022/01/04 10:09:48;;;;;;;34.83;17.70;;;7.20;99.90;;;;;;4385731;28;658922;-76
2022/01/04 10:12:49;;;;;;;34.83;17.30;;;7.30;99.90;;;;;;4385989;28;658623;-76
2022/01/04 10:15:40;;;;;;;40.07;18.80;;;7.40;99.90;;;;;;4390471;28;658969;-76
2022/01/04 10:18:28;;;;;;;33.90;15.87;;;7.40;99.90;;;;;;4383163;28;659470;-76
2022/01/04 10:21:17;;;;;;;32.17;15.70;;;7.40;99.90;;;;;;4375370;28;658599;-75
2022/01/04 10:24:05;;;;;;;29.57;15.27;;;7.50;99.90;;;;;;4387701;28;658871;-76
2022/01/04 10:26:54;;;;;;;30.83;14.50;;;7.50;99.90;;;;;;4369536;28;660565;-75
2022/01/04 10:29:44;;;;;;;14.37;7.50;;;7.50;99.90;;;;;;4375073;28;658418;-76
2022/01/04 10:32:32;;;;;;;20.25;11.02;;;7.60;99.90;;;;;;4331952;28;657851;-76
2022/01/04 10:35:28;;;;;;;26.57;11.63;;;7.60;99.90;;;;;;4434228;28;658802;-75
2022/01/04 10:38:17;;;;;;;27.93;12.20;;;7.60;99.90;;;;;;4364581;28;658798;-76
2022/01/04 10:41:06;;;;;;;20.33;9.67;;;7.70;99.90;;;;;;4393446;28;658845;-76
2022/01/04 10:43:55;;;;;;;20.23;9.55;;;7.70;99.90;;;;;;4375159;28;658318;-76
2022/01/04 10:46:45;;;;;;;20.80;10.63;;;7.80;99.90;;;;;;4390025;28;658546;-76
2022/01/04 10:49:41;;;;;;;23.07;11.57;;;7.80;99.90;;;;;;4384393;28;658997;-76
2022/01/04 10:52:32;;;;;;;14.23;6.67;;;7.90;99.90;;;;;;4366352;28;658897;-75
2022/01/04 10:55:20;;;;;;;18.80;8.37;;;7.90;99.90;;;;;;4387650;28;657527;-76
2022/01/04 10:58:08;;;;;;;17.73;8.33;;;7.90;99.90;;;;;;4365574;28;657713;-75
2022/01/04 11:00:58;;;;;;;15.57;7.53;;;7.90;99.90;;;;;;4384744;28;658458;-76
2022/01/04 11:03:49;;;;;;;18.57;8.63;;;7.90;99.90;;;;;;4388520;28;658140;-76
2022/01/04 11:06:38;;;;;;;9.57;4.47;;;7.90;99.90;;;;;;4392057;28;658238;-76
2022/01/04 11:09:26;;;;;;;10.90;4.63;;;7.90;99.90;;;;;;4391532;28;656613;-75
2022/01/04 11:12:14;;;;;;;11.65;4.55;;;7.90;99.90;;;;;;4412303;28;658312;-76
2022/01/04 11:15:02;;;;;;;9.40;4.60;;;7.90;99.90;;;;;;4392595;28;658647;-76
2022/01/04 11:17:50;;;;;;;7.23;3.80;;;8.00;99.90;;;;;;4394074;28;656723;-74
2022/01/04 11:20:40;;;;;;;9.63;4.40;;;8.10;99.90;;;;;;4364033;28;658966;-75
2022/01/04 11:23:29;;;;;;;9.73;4.37;;;8.10;99.90;;;;;;4379627;28;657507;-75
2022/01/04 11:26:17;;;;;;;9.67;4.03;;;8.20;99.90;;;;;;4376059;28;656980;-74
2022/01/04 11:29:05;;;;;;;10.60;4.37;;;8.20;99.90;;;;;;4408773;28;657351;-75
2022/01/04 11:31:57;;;;;;;8.82;4.20;;;8.20;99.90;;;;;;4383783;28;658297;-75
2022/01/04 11:34:53;;;;;;;8.87;4.23;;;8.30;99.90;;;;;;4377864;28;656594;-74
2022/01/04 11:37:51;;;;;;;10.87;4.37;;;8.30;99.90;;;;;;4369959;28;657590;-76
2022/01/04 11:40:43;;;;;;;6.80;3.93;;;8.30;99.90;;;;;;4358448;28;658290;-75
2022/01/04 11:43:32;;;;;;;10.90;4.80;;;8.40;99.90;;;;;;4352647;28;656982;-75
2022/01/04 11:46:34;;;;;;;10.63;4.30;;;8.40;99.90;;;;;;4385816;28;657506;-74
2022/01/04 11:49:21;;;;;;;9.57;4.63;;;8.40;99.90;;;;;;4334963;28;657677;-74
2022/01/04 11:52:10;;;;;;;9.40;4.63;;;8.40;99.90;;;;;;4401222;28;657349;-75
2022/01/04 11:55:21;;;;;;;10.53;3.60;;;8.40;99.90;;;;;;4317122;28;657339;-74
2022/01/04 11:58:20;;;;;;;9.07;4.13;;;8.40;99.90;;;;;;4349763;28;658887;-75
2022/01/04 12:01:11;;;;;;;8.80;4.30;;;8.40;99.90;;;;;;4353455;28;656992;-75
2022/01/04 12:03:58;;;;;;;7.67;3.80;;;8.40;99.90;;;;;;4391567;28;656983;-75
2022/01/04 12:06:46;;;;;;;7.67;3.73;;;8.40;99.90;;;;;;4376437;28;658053;-74
2022/01/04 12:09:34;;;;;;;8.13;3.92;;;8.40;99.90;;;;;;4388922;28;656364;-75
2022/01/04 12:12:55;;;;;;;7.07;3.53;;;8.30;99.90;;;;;;4377649;28;656909;-76
2022/01/04 12:15:55;;;;;;;7.60;3.20;;;8.30;99.90;;;;;;4387673;28;656916;-79
2022/01/04 12:19:04;;;;;;;5.37;3.20;;;8.30;99.90;;;;;;4393071;28;656446;-75
2022/01/04 12:22:03;;;;;;;7.27;3.40;;;8.30;99.90;;;;;;4384922;28;656868;-74
2022/01/04 12:24:53;;;;;;;7.23;2.63;;;8.30;99.90;;;;;;4372210;28;656636;-75
2022/01/04 12:27:52;;;;;;;6.17;3.23;;;8.30;99.90;;;;;;4393260;28;657174;-75
2022/01/04 12:30:40;;;;;;;8.30;3.53;;;8.20;99.90;;;;;;4351128;28;656623;-75
2022/01/04 12:33:39;;;;;;;5.50;3.00;;;8.20;99.90;;;;;;4356732;28;657138;-75
2022/01/04 12:36:29;;;;;;;6.03;2.83;;;8.20;99.90;;;;;;4373128;28;656632;-75
2022/01/04 12:39:20;;;;;;;6.23;3.10;;;8.20;99.90;;;;;;4369860;28;656678;-75
2022/01/04 12:42:09;;;;;;;8.47;3.13;;;8.20;99.90;;;;;;4354074;28;658245;-75
2022/01/04 12:44:58;;;;;;;5.70;2.87;;;8.20;99.90;;;;;;4361987;28;657834;-75
2022/01/04 12:47:50;;;;;;;6.70;3.08;;;8.10;99.90;;;;;;4361508;28;656209;-75
2022/01/04 12:50:39;;;;;;;7.27;2.70;;;8.10;99.90;;;;;;4364313;28;657018;-75
2022/01/04 12:53:37;;;;;;;7.37;2.73;;;8.10;99.90;;;;;;4353884;28;656584;-75
2022/01/04 12:56:25;;;;;;;7.07;3.00;;;8.10;99.90;;;;;;4338821;28;657080;-74
2022/01/04 12:59:29;;;;;;;7.90;3.50;;;8.00;99.90;;;;;;4363518;28;657324;-74
2022/01/04 13:02:19;;;;;;;6.53;3.20;;;8.10;99.90;;;;;;4346956;28;656551;-76
2022/01/04 13:05:15;;;;;;;8.80;3.63;;;8.00;99.90;;;;;;4359328;28;656927;-74
2022/01/04 13:08:08;;;;;;;6.47;3.47;;;8.00;99.90;;;;;;4354310;28;657206;-74
2022/01/04 13:11:03;;;;;;;7.20;3.50;;;8.00;99.90;;;;;;4336584;28;656770;-76
2022/01/04 13:13:54;;;;;;;8.40;3.90;;;8.00;99.90;;;;;;4338166;28;656495;-76
2022/01/04 13:16:42;;;;;;;7.50;4.37;;;8.00;99.90;;;;;;4358686;28;656981;-76
2022/01/04 13:19:30;;;;;;;8.60;3.63;;;8.00;99.90;;;;;;4380548;28;657094;-76
2022/01/04 13:22:19;;;;;;;7.97;4.03;;;7.90;99.90;;;;;;4352887;28;657981;-75
2022/01/04 13:25:10;;;;;;;8.37;4.03;;;7.90;99.90;;;;;;4374279;28;656559;-75
2022/01/04 13:28:02;;;;;;;7.73;4.00;;;7.90;99.90;;;;;;4357495;28;657746;-75
2022/01/04 13:30:50;;;;;;;10.27;3.67;;;7.90;99.90;;;;;;4372415;28;655936;-75
2022/01/04 13:33:38;;;;;;;8.83;3.97;;;8.00;99.90;;;;;;4376842;28;658584;-77
2022/01/04 13:36:26;;;;;;;8.90;3.87;;;8.00;99.90;;;;;;4363187;28;656915;-76
2022/01/04 13:39:14;;;;;;;10.87;4.90;;;8.00;99.90;;;;;;4391592;28;657687;-76
2022/01/04 13:42:04;;;;;;;11.17;4.90;;;8.00;99.90;;;;;;4377328;28;657850;-76
2022/01/04 13:44:56;;;;;;;11.50;4.80;;;8.00;99.90;;;;;;4392103;28;657435;-76
2022/01/04 13:47:46;;;;;;;11.55;5.75;;;8.10;99.90;;;;;;4389410;28;658479;-76
2022/01/04 13:50:36;;;;;;;15.40;7.00;;;8.10;99.90;;;;;;4385960;28;657686;-76
2022/01/04 13:53:24;;;;;;;18.13;7.67;;;8.10;99.90;;;;;;4384034;28;658032;-76
2022/01/04 13:56:12;;;;;;;18.50;10.70;;;8.10;99.90;;;;;;4392410;28;657305;-76
2022/01/04 13:59:02;;;;;;;18.77;8.83;;;8.10;99.90;;;;;;4406934;28;659032;-77
2022/01/04 14:01:53;;;;;;;28.70;13.50;;;8.10;99.90;;;;;;4417171;28;657463;-76
2022/01/04 14:04:41;;;;;;;26.13;12.37;;;8.10;99.90;;;;;;4392123;28;659216;-75
2022/01/04 14:07:29;;;;;;;32.17;14.87;;;8.10;99.90;;;;;;4410104;28;658414;-76
2022/01/04 14:10:16;;;;;;;34.00;15.37;;;8.00;99.90;;;;;;4388941;28;658501;-77
2022/01/04 14:13:04;;;;;;;32.78;15.30;;;8.00;99.90;;;;;;4411529;28;659797;-76
2022/01/04 14:16:09;;;;;;;31.13;14.20;;;8.00;99.90;;;;;;4385722;28;658522;-75
2022/01/04 14:19:03;;;;;;;30.00;14.80;;;8.00;99.90;;;;;;4348944;28;659116;-75
2022/01/04 14:21:59;;;;;;;34.70;17.02;;;8.00;99.90;;;;;;4390192;28;658689;-76
2022/01/04 14:24:48;;;;;;;31.43;16.50;;;8.00;99.90;;;;;;4366603;28;659006;-76
2022/01/04 14:27:37;;;;;;;37.27;18.73;;;8.00;99.90;;;;;;4410068;28;658625;-76
2022/01/04 14:30:25;;;;;;;22.40;9.80;;;8.00;99.90;;;;;;4359801;28;658766;-77
2022/01/04 14:33:13;;;;;;;14.23;6.20;;;7.90;99.90;;;;;;4333592;28;657996;-78
2022/01/04 14:36:01;;;;;;;20.27;9.37;;;7.90;99.90;;;;;;4351799;28;657814;-76
2022/01/04 14:38:49;;;;;;;13.87;5.60;;;7.90;99.90;;;;;;4415503;28;659132;-76